Time;durP1;ratioP1;P1;durP2;ratioP2;P2;SDS_P1;SDS_P2;PMS_P1;PMS_P2;Temp;Humidity;BMP_temperature;BMP_pressure;BME280_temperature;BME280_humidity;BME280_pressure;Samples;Min_cycle;Max_cycle;Signal;HPM_P1;HPM_P2
2023/04/23 00:00:12;;;;;;;4.32;2.67;;;;;;;14.31;64.19;97511.16;5004134;28;20033;-76
2023/04/23 00:02:43;;;;;;;5.07;2.60;;;;;;;14.34;64.03;97507.88;5022642;28;20120;-77
2023/04/23 00:05:09;;;;;;;5.30;2.78;;;;;;;14.40;63.71;97501.31;5033112;28;20041;-76
2023/04/23 00:07:34;;;;;;;3.75;2.65;;;;;;;14.22;65.32;97504.69;5033574;28;20055;-76
2023/04/23 00:10:02;;;;;;;3.17;2.72;;;;;;;14.54;64.07;97507.66;5016838;28;20497;-76
2023/04/23 00:12:28;;;;;;;3.28;2.38;;;;;;;14.44;63.91;97497.75;5003758;28;20037;-76
2023/04/23 00:14:54;;;;;;;4.43;3.10;;;;;;;14.43;64.61;97495.31;5016742;28;20033;-76
2023/04/23 00:17:19;;;;;;;5.30;3.20;;;;;;;14.58;64.27;97497.06;5016748;28;20105;-75
2023/04/23 00:19:46;;;;;;;4.40;2.97;;;;;;;14.47;64.59;97485.53;5016604;28;20040;-76
2023/04/23 00:22:12;;;;;;;3.67;2.30;;;;;;;14.53;64.07;97489.81;5016645;28;20101;-75
2023/04/23 00:24:38;;;;;;;5.75;3.10;;;;;;;14.47;64.54;97488.22;5032805;28;20034;-75
2023/04/23 00:27:04;;;;;;;3.83;3.00;;;;;;;14.29;65.98;97483.50;5016429;28;20021;-75
2023/04/23 00:29:30;;;;;;;3.10;2.80;;;;;;;14.23;66.22;97482.75;5016472;28;20038;-75
2023/04/23 00:31:55;;;;;;;2.83;2.55;;;;;;;14.16;65.00;97489.59;5032765;28;20029;-73
2023/04/23 00:34:20;;;;;;;5.57;2.42;;;;;;;14.34;65.46;97486.19;5032396;28;20075;-74
2023/04/23 00:36:46;;;;;;;3.42;2.65;;;;;;;14.47;64.56;97482.81;5032671;28;20025;-73
2023/04/23 00:39:11;;;;;;;4.30;2.50;;;;;;;14.46;64.16;97483.91;5016127;28;20029;-74
2023/04/23 00:41:37;;;;;;;4.25;2.78;;;;;;;14.42;64.70;97485.59;5013445;28;20029;-73
2023/04/23 00:44:02;;;;;;;4.32;2.75;;;;;;;14.25;65.06;97482.47;5020630;28;20373;-73
2023/04/23 00:46:28;;;;;;;4.70;2.80;;;;;;;14.38;64.79;97481.81;5015979;28;20100;-76
2023/04/23 00:48:54;;;;;;;4.15;2.70;;;;;;;14.32;65.12;97472.97;5016053;28;20029;-76
2023/04/23 00:51:21;;;;;;;5.20;2.72;;;;;;;14.05;66.45;97479.94;5014834;28;20017;-74
2023/04/23 00:53:46;;;;;;;4.18;2.72;;;;;;;14.10;65.61;97479.88;5003923;28;20065;-74
2023/04/23 00:56:12;;;;;;;4.07;3.00;;;;;;;14.01;66.29;97470.75;5013761;28;20553;-74
2023/04/23 00:58:38;;;;;;;3.50;2.65;;;;;;;13.93;66.74;97471.38;5003613;28;20136;-74
2023/04/23 01:01:03;;;;;;;4.97;2.70;;;;;;;13.95;66.31;97478.13;5031325;28;20084;-75
2023/04/23 01:03:30;;;;;;;4.95;2.95;;;;;;;13.94;65.98;97470.28;5032154;28;20033;-75
2023/04/23 01:05:57;;;;;;;4.80;2.55;;;;;;;14.22;65.34;97469.50;5015913;28;20049;-75
2023/04/23 01:08:24;;;;;;;5.32;2.50;;;;;;;14.02;66.41;97461.56;5032128;28;20091;-77
2023/04/23 01:10:49;;;;;;;5.10;2.58;;;;;;;14.07;65.92;97464.22;5015438;28;20029;-77
2023/04/23 01:13:15;;;;;;;5.40;3.00;;;;;;;14.16;65.57;97473.34;5015352;28;20055;-77
2023/04/23 01:15:41;;;;;;;4.22;3.22;;;;;;;14.08;66.07;97479.38;4999143;28;20057;-76
2023/04/23 01:18:07;;;;;;;2.92;2.60;;;;;;;13.99;66.71;97489.19;5015416;28;20039;-76
2023/04/23 01:20:34;;;;;;;5.32;3.00;;;;;;;13.77;66.69;97485.03;5032029;28;20029;-76
2023/04/23 01:23:00;;;;;;;5.35;2.97;;;;;;;13.71;67.20;97490.75;5031724;28;20112;-76
2023/04/23 01:25:26;;;;;;;4.57;2.95;;;;;;;13.79;66.94;97496.38;5015268;28;20045;-76
2023/04/23 01:27:52;;;;;;;3.50;3.00;;;;;;;13.68;67.07;97488.59;5031702;28;20029;-76
2023/04/23 01:30:17;;;;;;;3.25;2.85;;;;;;;13.66;67.63;97491.59;5015264;28;20368;-76
2023/04/23 01:32:43;;;;;;;3.55;3.05;;;;;;;13.54;68.69;97496.56;5015001;28;20036;-76
2023/04/23 01:35:08;;;;;;;5.50;3.00;;;;;;;13.66;67.38;97490.78;5031516;28;20033;-76
2023/04/23 01:37:34;;;;;;;5.57;3.08;;;;;;;13.81;67.78;97493.41;5015316;28;20442;-76
2023/04/23 01:40:00;;;;;;;4.13;3.20;;;;;;;13.69;67.64;97506.47;5015087;28;20412;-76
2023/04/23 01:42:25;;;;;;;4.43;3.60;;;;;;;13.63;67.93;97497.56;5014922;28;20064;-76
2023/04/23 01:44:52;;;;;;;4.10;3.22;;;;;;;13.56;68.25;97505.19;4998626;28;20116;-75
2023/04/23 01:47:19;;;;;;;4.40;3.38;;;;;;;13.78;68.14;97504.78;4991990;28;20037;-76
2023/04/23 01:49:44;;;;;;;4.05;2.78;;;;;;;13.58;67.99;97489.47;5032579;28;20060;-75
2023/04/23 01:52:10;;;;;;;4.78;3.30;;;;;;;13.62;68.67;97490.56;5014604;28;20065;-76
2023/04/23 01:57:09;;;;;;;4.57;3.40;;;;;;;13.56;68.09;97480.84;5011536;28;20049;-76
2023/04/23 01:59:36;;;;;;;4.85;3.40;;;;;;;13.62;68.32;97470.81;4979003;28;20116;-76
2023/04/23 02:02:01;;;;;;;6.25;3.45;;;;;;;13.51;68.65;97472.75;4995098;28;20419;-77
2023/04/23 02:04:28;;;;;;;5.30;3.38;;;;;;;13.68;68.11;97464.25;4961794;28;20022;-76
2023/04/23 02:06:53;;;;;;;4.00;3.50;;;;;;;13.44;69.30;97487.69;4994890;28;20033;-77
2023/04/23 02:09:20;;;;;;;5.40;3.70;;;;;;;13.31;69.62;97488.31;4994969;28;20121;-76
2023/04/23 02:11:45;;;;;;;4.72;4.32;;;;;;;13.28;69.97;97489.66;4975403;28;20065;-75
2023/04/23 02:14:11;;;;;;;6.43;5.32;;;;;;;13.18;70.50;97487.03;4978416;28;20034;-75
2023/04/23 02:16:36;;;;;;;5.55;5.15;;;;;;;13.29;70.48;97485.06;4978480;28;20048;-76
2023/04/23 02:19:01;;;;;;;6.30;5.80;;;;;;;13.31;69.82;97491.81;4994747;28;20037;-76
2023/04/23 02:21:27;;;;;;;6.55;4.75;;;;;;;13.34;70.10;97493.97;4994691;28;20606;-76
2023/04/23 02:23:52;;;;;;;6.30;5.63;;;;;;;13.21;70.24;97478.34;4994339;28;20488;-76
2023/04/23 02:26:18;;;;;;;6.40;5.90;;;;;;;13.32;70.51;97488.03;4994686;28;20361;-76
2023/04/23 02:28:44;;;;;;;6.35;5.75;;;;;;;13.26;69.52;97486.44;4994745;28;20037;-76
2023/04/23 02:31:10;;;;;;;6.40;5.18;;;;;;;13.41;68.83;97493.66;4978359;28;20056;-77
2023/04/23 02:33:37;;;;;;;8.30;5.18;;;;;;;13.24;70.26;97496.72;4994694;28;20112;-76
2023/04/23 02:36:03;;;;;;;6.32;5.80;;;;;;;13.23;70.29;97497.00;4978365;28;20504;-76
2023/04/23 02:38:28;;;;;;;7.65;6.45;;;;;;;13.25;70.26;97494.84;4994582;28;20041;-76
2023/04/23 02:40:54;;;;;;;6.50;5.35;;;;;;;13.47;69.25;97481.72;4994523;28;20038;-77
2023/04/23 02:43:19;;;;;;;6.93;6.18;;;;;;;13.36;69.77;97477.47;4994299;28;20345;-76
2023/04/23 02:45:45;;;;;;;5.97;5.40;;;;;;;13.37;69.83;97477.16;4978263;28;20050;-76
2023/04/23 02:48:10;;;;;;;6.55;6.05;;;;;;;13.39;70.86;97485.03;4992537;28;20514;-76
2023/04/23 02:50:37;;;;;;;8.10;7.40;;;;;;;13.07;71.11;97471.94;4978062;28;20017;-75
2023/04/23 02:53:04;;;;;;;8.45;7.95;;;;;;;13.21;70.98;97489.16;4977881;28;20117;-76
2023/04/23 02:55:30;;;;;;;9.45;8.75;;;;;;;13.08;71.89;97492.47;4974921;28;20030;-76
2023/04/23 02:57:57;;;;;;;8.45;7.70;;;;;;;13.22;70.43;97490.78;4982681;28;20030;-75
2023/04/23 03:00:24;;;;;;;7.85;7.07;;;;;;;13.15;70.53;97495.69;4994224;28;20105;-78
2023/04/23 03:02:50;;;;;;;13.05;8.57;;;;;;;13.01;71.49;97495.47;4965089;28;20065;-76
2023/04/23 03:05:15;;;;;;;9.48;8.60;;;;;;;12.94;71.60;97510.34;4971669;28;20026;-76
2023/04/23 03:07:41;;;;;;;9.40;8.60;;;;;;;13.16;71.45;97505.44;4975577;28;20113;-76
2023/04/23 03:10:07;;;;;;;11.18;10.07;;;;;;;13.11;71.64;97510.84;4987289;28;20045;-75
2023/04/23 03:12:33;;;;;;;10.75;9.82;;;;;;;12.97;71.60;97507.91;4966775;28;20057;-76
2023/04/23 03:14:59;;;;;;;11.40;10.60;;;;;;;12.99;71.59;97507.63;4986924;28;20052;-76
2023/04/23 03:17:26;;;;;;;11.10;10.32;;;;;;;13.05;71.96;97514.63;4981899;28;20064;-73
2023/04/23 03:19:51;;;;;;;14.07;13.07;;;;;;;12.93;72.38;97516.81;4997952;28;20057;-73
2023/04/23 03:22:17;;;;;;;14.75;13.77;;;;;;;12.87;73.14;97520.63;4980253;28;20041;-73
2023/04/23 03:24:43;;;;;;;16.35;15.20;;;;;;;12.90;73.31;97520.09;4994642;28;20133;-74
2023/04/23 03:27:08;;;;;;;20.05;18.83;;;;;;;12.80;73.94;97520.94;4981669;28;20061;-73
2023/04/23 03:29:34;;;;;;;18.77;17.58;;;;;;;12.89;73.10;97515.75;4997792;28;20116;-75
2023/04/23 03:32:00;;;;;;;22.85;21.55;;;;;;;12.76;74.07;97524.47;4996129;28;20033;-75
2023/04/23 03:34:25;;;;;;;27.35;25.58;;;;;;;12.70;74.61;97525.53;4946261;28;20033;-76
2023/04/23 03:36:51;;;;;;;27.27;25.92;;;;;;;12.68;74.81;97528.53;4992800;28;20124;-77
2023/04/23 03:39:16;;;;;;;29.15;27.75;;;;;;;12.77;75.12;97526.06;4981642;28;20022;-76
2023/04/23 03:41:48;;;;;;;35.58;33.88;;;;;;;12.71;75.21;97535.28;4983317;28;20038;-76
2023/04/23 03:44:16;;;;;;;37.25;35.45;;;;;;;12.60;75.81;97525.59;4997634;28;20516;-76
2023/04/23 03:46:43;;;;;;;40.72;38.58;;;;;;;12.65;75.52;97530.97;4997368;28;20034;-76
2023/04/23 03:49:09;;;;;;;44.47;42.00;;;;;;;12.58;76.16;97543.97;4978010;28;20045;-75
2023/04/23 03:51:35;;;;;;;44.97;42.88;;;;;;;12.65;76.49;97544.50;4997531;28;20041;-76
2023/04/23 03:54:00;;;;;;;49.13;46.78;;;;;;;12.56;76.36;97535.28;4997141;28;20065;-76
2023/04/23 03:56:48;;;;;;;55.17;52.63;;;;;;;12.32;77.90;97541.28;4975374;28;20064;-75
2023/04/23 03:59:17;;;;;;;57.88;55.00;;;;;;;12.43;77.60;97542.91;4981567;28;20041;-75
2023/04/23 04:01:47;;;;;;;58.85;56.28;;;;;;;12.49;77.85;97539.09;4968323;28;20017;-75
2023/04/23 04:04:13;;;;;;;53.00;50.50;;;;;;;12.77;76.52;97539.56;4980985;28;20034;-75
2023/04/23 04:06:39;;;;;;;59.42;56.67;;;;;;;12.64;77.01;97548.25;4961644;28;20511;-76
2023/04/23 04:09:06;;;;;;;57.58;54.65;;;;;;;12.63;77.64;97552.03;4997205;28;20049;-76
2023/04/23 04:11:32;;;;;;;57.05;54.35;;;;;;;12.59;77.22;97550.97;4981051;28;20025;-76
2023/04/23 04:13:57;;;;;;;61.25;58.35;;;;;;;12.72;77.65;97539.63;4980595;28;20037;-76
2023/04/23 04:16:23;;;;;;;58.40;55.78;;;;;;;12.75;76.81;97544.44;5014434;28;20079;-77
2023/04/23 04:18:48;;;;;;;55.55;52.95;;;;;;;12.77;76.38;97542.28;5014598;28;20037;-75
2023/04/23 04:21:14;;;;;;;56.85;54.13;;;;;;;12.79;77.43;97540.13;4993705;28;20499;-74
2023/04/23 04:23:40;;;;;;;58.00;55.30;;;;;;;12.60;77.07;97549.91;4990766;28;20042;-75
2023/04/23 04:26:06;;;;;;;54.95;52.40;;;;;;;12.68;76.81;97543.91;4993707;28;20388;-75
2023/04/23 04:28:35;;;;;;;60.17;57.13;;;;;;;12.52;77.84;97543.16;4997148;28;20120;-75
2023/04/23 04:31:01;;;;;;;62.38;59.58;;;;;;;12.52;77.65;97545.84;5014316;28;20026;-75
2023/04/23 04:33:27;;;;;;;61.65;58.85;;;;;;;12.69;77.21;97540.16;4996345;28;20038;-74
2023/04/23 04:35:53;;;;;;;55.85;53.13;;;;;;;12.59;77.23;97543.69;4997102;28;20022;-76
2023/04/23 04:38:20;;;;;;;61.08;58.15;;;;;;;12.25;78.47;97551.53;4997074;28;20395;-77
2023/04/23 04:40:47;;;;;;;59.60;56.80;;;;;;;12.56;77.59;97556.91;4964839;28;20530;-76
2023/04/23 04:43:13;;;;;;;64.00;61.05;;;;;;;12.38;77.68;97561.81;5012947;28;20431;-75
2023/04/23 04:45:38;;;;;;;66.93;63.83;;;;;;;12.40;78.28;97566.94;4964567;28;20034;-73
2023/04/23 04:48:03;;;;;;;63.85;60.95;;;;;;;12.62;77.32;97561.25;5014668;28;20069;-74
2023/04/23 04:50:29;;;;;;;64.10;61.20;;;;;;;12.53;78.21;97568.28;4996814;28;20028;-76
2023/04/23 04:52:54;;;;;;;57.30;54.60;;;;;;;12.79;76.52;97557.13;4996429;28;20038;-76
2023/04/23 04:55:20;;;;;;;56.13;53.42;;;;;;;12.71;77.60;97562.28;5012820;28;20037;-77
2023/04/23 04:57:45;;;;;;;65.90;62.75;;;;;;;12.37;78.46;97565.56;5014120;28;20092;-76
2023/04/23 05:00:22;;;;;;;69.30;66.20;;;;;;;12.47;78.90;97564.75;4980517;28;20076;-77
2023/04/23 05:02:49;;;;;;;67.68;64.40;;;;;;;12.38;78.23;97561.00;4980683;28;20438;-77
2023/04/23 05:05:14;;;;;;;65.10;62.17;;;;;;;12.60;78.28;97568.81;4979965;28;20038;-75
2023/04/23 05:07:40;;;;;;;64.93;61.72;;;;;;;12.60;78.44;97564.22;4996191;28;20034;-76
2023/04/23 05:10:06;;;;;;;63.00;60.03;;;;;;;12.55;78.62;97566.09;4980017;28;20080;-77
2023/04/23 05:12:31;;;;;;;62.30;59.40;;;;;;;12.71;77.54;97571.22;4996414;28;20116;-77
2023/04/23 05:14:56;;;;;;;64.07;60.97;;;;;;;12.63;78.06;97584.44;4963910;28;20084;-75
2023/04/23 05:17:22;;;;;;;61.35;58.53;;;;;;;12.55;78.19;97576.91;4998083;28;20034;-74
2023/04/23 05:19:47;;;;;;;61.42;58.55;;;;;;;12.81;78.00;97581.19;5003993;28;20108;-74
2023/04/23 05:22:13;;;;;;;62.72;59.83;;;;;;;12.58;77.77;97579.06;4995812;28;20034;-74
2023/04/23 05:24:39;;;;;;;69.00;65.80;;;;;;;12.53;78.32;97579.91;4963390;28;20026;-75
2023/04/23 05:27:05;;;;;;;67.78;64.78;;;;;;;12.78;77.53;97565.53;4995253;28;20065;-75
2023/04/23 05:29:30;;;;;;;63.03;60.13;;;;;;;12.98;76.58;97573.56;4992654;28;20026;-75
2023/04/23 05:31:55;;;;;;;64.43;61.28;;;;;;;12.74;77.87;97577.97;5005575;23;20525;-74
2023/04/23 05:34:21;;;;;;;66.70;63.33;;;;;;;12.99;77.42;97572.50;5015096;28;20060;-74
2023/04/23 05:36:46;;;;;;;62.28;59.28;;;;;;;13.18;76.49;97570.84;5031681;28;20044;-73
2023/04/23 05:39:12;;;;;;;58.25;55.47;;;;;;;13.22;76.04;97569.22;5031686;28;20061;-73
2023/04/23 05:41:37;;;;;;;58.85;55.95;;;;;;;13.11;77.02;97570.34;5031414;28;20060;-74
2023/04/23 05:44:02;;;;;;;59.03;56.13;;;;;;;12.85;77.00;97576.84;5015196;28;20108;-73
2023/04/23 05:46:28;;;;;;;59.63;56.63;;;;;;;12.94;77.45;97580.63;5031469;28;20395;-73
2023/04/23 05:48:53;;;;;;;61.78;58.78;;;;;;;12.81;77.65;97581.19;5031357;28;20087;-73
2023/04/23 05:51:18;;;;;;;111.03;101.75;;;;;;;12.91;77.64;97591.97;5032489;28;20033;-73
2023/04/23 05:53:44;;;;;;;95.40;88.30;;;;;;;12.81;78.19;97581.97;5031129;28;20064;-74
2023/04/23 05:56:09;;;;;;;97.25;90.28;;;;;;;12.76;77.83;97578.50;5015105;28;20394;-72
2023/04/23 05:58:35;;;;;;;72.85;69.07;;;;;;;12.60;79.02;97587.72;5031184;28;20025;-73
2023/04/23 06:01:00;;;;;;;71.85;68.55;;;;;;;12.74;78.35;97588.78;5014642;28;20076;-73
2023/04/23 06:03:26;;;;;;;66.63;63.42;;;;;;;12.75;78.17;97598.47;5032232;28;20096;-74
2023/04/23 06:05:51;;;;;;;66.65;63.58;;;;;;;12.55;78.70;97587.72;5031135;28;20045;-73
2023/04/23 06:08:17;;;;;;;67.55;64.45;;;;;;;12.81;77.12;97597.41;5032251;28;20032;-73
2023/04/23 06:10:42;;;;;;;67.38;64.32;;;;;;;12.72;78.24;97604.47;5031977;28;20034;-73
2023/04/23 06:13:09;;;;;;;63.65;60.65;;;;;;;12.66;78.21;97600.94;5014316;28;20112;-73
2023/04/23 06:15:35;;;;;;;64.18;61.10;;;;;;;12.59;78.47;97602.28;5030581;28;20044;-72
2023/04/23 06:18:00;;;;;;;67.70;64.45;;;;;;;12.49;79.04;97606.63;5030785;28;20036;-74
2023/04/23 06:20:25;;;;;;;70.50;67.30;;;;;;;12.51;78.58;97608.25;5031937;28;20418;-73
2023/04/23 06:22:51;;;;;;;71.88;68.57;;;;;;;12.46;78.99;97600.97;5014252;28;20041;-75
2023/04/23 06:25:16;;;;;;;69.95;66.75;;;;;;;12.45;79.47;97620.94;5014230;28;20399;-72
2023/04/23 06:27:41;;;;;;;65.25;62.30;;;;;;;12.32;78.65;97614.16;5013889;28;20029;-72
2023/04/23 06:30:14;;;;;;;68.72;65.65;;;;;;;12.56;79.02;97613.63;5013583;28;20383;-73
2023/04/23 06:32:40;;;;;;;71.00;67.80;;;;;;;12.31;79.84;97615.28;5014155;28;20022;-73
2023/04/23 06:35:06;;;;;;;75.95;72.18;;;;;;;12.23;80.81;97617.66;5013998;28;20025;-73
2023/04/23 06:37:31;;;;;;;76.07;72.28;;;;;;;12.47;81.38;97619.59;5030382;28;20033;-73
2023/04/23 06:39:58;;;;;;;81.10;77.05;;;;;;;12.05;82.97;97616.31;5029917;28;20057;-71
2023/04/23 06:42:23;;;;;;;80.20;75.90;;;;;;;12.28;82.80;97621.19;5013062;28;20037;-72
2023/04/23 06:45:03;;;;;;;78.15;74.10;;;;;;;12.21;83.29;97617.94;5028213;28;20487;-72
2023/04/23 06:47:29;;;;;;;78.97;75.03;;;;;;;12.07;83.26;97616.84;5029854;28;20232;-71
2023/04/23 06:49:56;;;;;;;79.15;75.25;;;;;;;12.25;82.20;97619.03;5029566;28;20017;-72
2023/04/23 06:52:21;;;;;;;77.88;73.88;;;;;;;12.39;83.40;97614.72;5030067;28;20030;-72
2023/04/23 06:54:47;;;;;;;78.65;74.63;;;;;;;12.24;81.76;97614.72;5029465;28;20514;-72
2023/04/23 06:57:12;;;;;;;76.88;72.88;;;;;;;12.30;82.47;97613.63;5030110;28;20076;-73
2023/04/23 06:59:38;;;;;;;76.15;72.43;;;;;;;12.29;82.69;97612.03;5030106;28;20026;-72
2023/04/23 07:02:03;;;;;;;74.75;71.05;;;;;;;12.44;82.33;97614.72;5013594;28;20034;-73
2023/04/23 07:04:29;;;;;;;75.82;71.95;;;;;;;12.54;80.77;97618.50;5046607;28;20025;-73
2023/04/23 07:06:54;;;;;;;72.82;69.32;;;;;;;12.92;80.51;97607.13;5031276;28;20147;-72
2023/04/23 07:09:19;;;;;;;71.55;67.97;;;;;;;12.92;81.05;97607.13;5030091;28;20086;-72
2023/04/23 07:11:45;;;;;;;64.82;61.72;;;;;;;12.65;78.90;97604.72;5031188;28;20040;-72
2023/04/23 07:14:10;;;;;;;64.00;61.10;;;;;;;12.80;79.41;97601.19;5029683;28;20506;-72
2023/04/23 07:16:36;;;;;;;58.42;55.80;;;;;;;12.97;78.07;97599.00;5013649;28;20083;-72
2023/04/23 07:19:01;;;;;;;51.72;49.40;;;;;;;13.25;76.36;97595.69;5031238;28;20418;-73
2023/04/23 07:21:27;;;;;;;52.97;50.50;;;;;;;12.95;77.17;97598.47;5029940;28;20052;-72
2023/04/23 07:23:55;;;;;;;59.35;56.67;;;;;;;12.96;78.40;97595.47;5013332;28;20038;-73
2023/04/23 07:26:20;;;;;;;47.15;44.97;;;;;;;13.09;75.58;97600.31;5013736;28;20033;-72
2023/04/23 07:28:47;;;;;;;45.20;43.20;;;;;;;13.27;76.23;97601.63;5013538;28;20105;-73
2023/04/23 07:31:13;;;;;;;41.03;39.03;;;;;;;12.79;75.78;97599.59;5031068;28;20033;-72
2023/04/23 07:33:38;;;;;;;40.95;39.03;;;;;;;12.63;75.42;97600.66;5029779;28;20079;-72
2023/04/23 07:36:04;;;;;;;36.55;34.85;;;;;;;12.93;74.84;97619.53;5031094;28;20041;-72
2023/04/23 07:38:29;;;;;;;38.00;36.10;;;;;;;13.04;76.24;97607.63;5046372;28;20030;-72
2023/04/23 07:40:54;;;;;;;37.42;35.72;;;;;;;13.15;75.16;97601.13;4997005;28;20112;-72
2023/04/23 07:43:20;;;;;;;27.42;26.05;;;;;;;13.31;73.31;97602.69;5013151;28;20030;-73
2023/04/23 07:45:45;;;;;;;32.05;30.42;;;;;;;13.46;74.21;97602.66;5031075;28;20079;-72
2023/04/23 07:48:11;;;;;;;32.83;31.33;;;;;;;13.72;73.33;97606.84;5029817;28;20398;-73
2023/04/23 07:50:36;;;;;;;29.77;28.17;;;;;;;13.91;72.92;97600.81;5032249;28;20064;-73
2023/04/23 07:53:02;;;;;;;26.65;25.35;;;;;;;13.77;72.90;97601.41;5034308;28;20036;-75
2023/04/23 07:55:27;;;;;;;17.02;16.13;;;;;;;13.52;71.72;97604.25;5042951;28;20033;-72
2023/04/23 07:57:52;;;;;;;17.65;16.52;;;;;;;13.84;71.78;97599.19;5038550;28;20021;-73
2023/04/23 08:00:18;;;;;;;19.38;18.38;;;;;;;13.48;73.00;97608.59;5034486;28;20049;-72
2023/04/23 08:02:43;;;;;;;16.70;15.80;;;;;;;13.64;71.79;97610.13;5034371;28;20022;-73
2023/04/23 08:05:09;;;;;;;18.75;17.60;;;;;;;13.62;72.42;97604.19;5033096;28;20046;-72
2023/04/23 08:07:35;;;;;;;12.00;11.30;;;;;;;13.75;70.80;97600.88;5032756;28;20033;-72
2023/04/23 08:10:04;;;;;;;15.23;14.40;;;;;;;14.19;70.57;97597.38;5033356;28;20036;-72
2023/04/23 08:12:32;;;;;;;6.70;6.30;;;;;;;14.47;67.87;97593.91;5017131;28;20487;-72
2023/04/23 08:14:58;;;;;;;6.97;6.47;;;;;;;14.22;69.31;97591.38;5032891;28;20513;-75
2023/04/23 08:17:30;;;;;;;6.63;5.97;;;;;;;14.01;68.91;97585.28;5017467;28;20075;-74
2023/04/23 08:19:55;;;;;;;7.38;6.88;;;;;;;14.16;67.91;97584.38;5032922;28;20042;-75
2023/04/23 08:22:20;;;;;;;8.85;8.15;;;;;;;14.25;69.13;97579.97;5000000;28;20033;-75
2023/04/23 08:24:46;;;;;;;6.00;5.50;;;;;;;14.87;66.23;97582.69;5033968;28;20549;-75
2023/04/23 08:27:11;;;;;;;4.57;4.18;;;;;;;14.14;65.87;97578.44;5032855;28;20030;-75
2023/04/23 08:29:37;;;;;;;5.60;5.18;;;;;;;14.26;67.31;97587.03;5034150;28;20128;-75
2023/04/23 08:32:02;;;;;;;5.97;5.50;;;;;;;14.77;65.87;97582.78;5032445;28;20025;-74
2023/04/23 08:34:28;;;;;;;4.28;3.88;;;;;;;15.21;64.00;97578.00;5015952;28;20115;-74
2023/04/23 08:36:53;;;;;;;6.47;6.07;;;;;;;15.33;67.72;97579.47;5033837;28;20033;-75
2023/04/23 08:39:19;;;;;;;4.28;3.95;;;;;;;16.24;63.38;97574.41;5032645;28;20034;-75
2023/04/23 08:41:48;;;;;;;4.43;3.88;;;;;;;16.20;61.54;97575.31;5032406;28;20040;-75
2023/04/23 08:44:19;;;;;;;4.97;3.60;;;;;;;16.09;61.48;97582.81;5015932;28;20041;-72
2023/04/23 08:46:45;;;;;;;5.80;3.53;;;;;;;16.25;60.45;97573.31;5016019;28;20128;-74
2023/04/23 08:49:16;;;;;;;4.28;3.53;;;;;;;16.23;63.26;97580.97;5016088;28;20121;-74
2023/04/23 08:51:47;;;;;;;3.63;2.90;;;;;;;15.48;60.36;97577.41;5015919;28;20029;-73
2023/04/23 08:54:18;;;;;;;3.40;3.10;;;;;;;16.20;61.75;97573.41;5032353;28;20037;-73
2023/04/23 08:56:45;;;;;;;2.88;2.60;;;;;;;16.05;61.27;97565.50;5031398;28;20035;-73
2023/04/23 08:59:10;;;;;;;3.20;2.90;;;;;;;16.11;62.59;97572.44;5015909;28;20029;-72
2023/04/23 09:01:36;;;;;;;4.15;2.40;;;;;;;16.16;58.34;97566.94;5032698;28;20030;-72
2023/04/23 09:04:01;;;;;;;2.58;2.20;;;;;;;15.85;59.26;97565.78;5031799;28;20128;-72
2023/04/23 09:06:28;;;;;;;3.75;2.40;;;;;;;15.10;61.95;97581.91;4998796;28;20040;-73
2023/04/23 09:08:54;;;;;;;7.38;2.70;;;;;;;15.94;60.48;97574.88;5030866;28;20033;-72
2023/04/23 09:11:22;;;;;;;4.25;2.55;;;;;;;15.86;58.82;97568.22;5033207;28;20037;-73
2023/04/23 09:13:48;;;;;;;3.47;2.40;;;;;;;16.22;59.10;97570.41;5031827;28;20083;-73
2023/04/23 09:16:13;;;;;;;5.10;2.63;;;;;;;16.00;58.11;97567.47;5033337;28;20410;-73
2023/04/23 09:18:38;;;;;;;3.33;2.60;;;;;;;15.38;61.11;97565.84;5015536;28;20505;-73
2023/04/23 09:21:05;;;;;;;2.30;2.10;;;;;;;15.52;61.12;97561.38;5031845;28;20040;-72
2023/04/23 09:23:30;;;;;;;3.45;2.90;;;;;;;15.04;61.02;97560.53;5031803;28;20025;-72
2023/04/23 09:25:56;;;;;;;3.08;2.53;;;;;;;15.05;61.62;97549.41;5033063;28;20037;-72
2023/04/23 09:28:34;;;;;;;3.72;2.70;;;;;;;15.53;58.54;97557.53;5033113;28;20108;-74
2023/04/23 09:30:59;;;;;;;2.55;2.20;;;;;;;15.53;59.44;97557.53;5020664;28;20092;-72
2023/04/23 09:33:27;;;;;;;3.85;2.53;;;;;;;15.47;58.41;97551.38;5031619;28;20033;-73
2023/04/23 09:35:52;;;;;;;2.33;2.10;;;;;;;15.80;57.69;97557.69;5031766;28;20037;-72
2023/04/23 09:38:18;;;;;;;2.80;2.22;;;;;;;15.71;58.53;97543.16;5031603;28;20029;-72
2023/04/23 09:40:44;;;;;;;2.42;2.22;;;;;;;16.00;58.14;97549.28;5031036;28;20033;-72
2023/04/23 09:43:09;;;;;;;2.80;1.90;;;;;;;16.97;56.46;97541.09;4998604;28;20120;-73
2023/04/23 09:45:35;;;;;;;2.58;1.98;;;;;;;17.29;55.38;97538.28;5005204;28;20033;-74
2023/04/23 09:48:01;;;;;;;3.30;1.92;;;;;;;16.95;53.57;97546.03;5032415;28;20105;-75
2023/04/23 09:50:38;;;;;;;2.55;2.05;;;;;;;16.24;56.30;97536.38;5031263;28;20487;-74
2023/04/23 09:53:04;;;;;;;3.10;1.90;;;;;;;17.29;54.45;97535.56;5014377;28;20083;-75
2023/04/23 09:55:34;;;;;;;2.40;2.20;;;;;;;17.70;53.05;97538.25;5031219;28;20021;-75
2023/04/23 09:58:01;;;;;;;2.28;2.08;;;;;;;17.66;54.80;97535.34;5014984;28;20077;-75
2023/04/23 10:00:31;;;;;;;3.78;2.30;;;;;;;18.00;54.17;97528.56;5032365;28;20032;-76
2023/04/23 10:02:58;;;;;;;3.25;1.95;;;;;;;17.93;52.66;97529.81;5030977;28;20091;-74
2023/04/23 10:05:23;;;;;;;2.85;2.00;;;;;;;17.95;52.56;97524.88;5014743;28;20025;-74
2023/04/23 10:07:49;;;;;;;4.18;1.98;;;;;;;17.54;54.31;97526.91;5030939;28;20116;-74
2023/04/23 10:10:15;;;;;;;3.13;1.73;;;;;;;18.07;52.49;97527.03;5032170;28;20418;-74
2023/04/23 10:12:45;;;;;;;3.45;1.70;;;;;;;18.20;53.01;97522.66;5030721;28;20026;-74
2023/04/23 10:15:11;;;;;;;2.42;2.00;;;;;;;16.70;56.64;97522.03;5030253;28;20446;-74
2023/04/23 10:17:37;;;;;;;2.63;2.13;;;;;;;16.23;55.41;97518.47;5010578;28;20037;-74
2023/04/23 10:20:03;;;;;;;2.65;2.10;;;;;;;16.18;57.54;97520.44;5020488;28;20041;-74
2023/04/23 10:22:30;;;;;;;2.20;1.95;;;;;;;16.06;55.81;97523.63;5030173;28;20143;-74
2023/04/23 10:24:59;;;;;;;2.42;2.10;;;;;;;16.14;56.68;97525.69;5030669;28;20045;-74
2023/04/23 10:27:29;;;;;;;2.20;2.00;;;;;;;15.97;55.28;97528.13;5032255;28;20037;-74
2023/04/23 10:29:56;;;;;;;2.22;1.80;;;;;;;16.37;53.98;97519.31;5030744;28;20780;-74
2023/04/23 10:32:22;;;;;;;2.25;1.90;;;;;;;16.40;55.78;97513.28;5014089;28;20028;-75
2023/04/23 10:34:48;;;;;;;2.30;1.95;;;;;;;16.51;55.24;97508.50;5031642;28;20124;-74
2023/04/23 10:37:14;;;;;;;2.53;2.15;;;;;;;16.09;56.85;97511.38;5043826;28;20032;-74
2023/04/23 10:39:43;;;;;;;2.90;2.10;;;;;;;16.35;55.50;97518.81;5030618;28;20044;-74
2023/04/23 10:42:09;;;;;;;3.03;2.00;;;;;;;17.14;52.17;97506.75;5013850;28;20454;-74
2023/04/23 10:44:38;;;;;;;2.67;2.10;;;;;;;17.93;51.95;97508.03;5013947;28;20049;-74
2023/04/23 10:47:04;;;;;;;1.83;1.63;;;;;;;17.79;50.89;97506.44;5047074;28;20022;-74
2023/04/23 10:49:31;;;;;;;2.65;2.00;;;;;;;17.36;53.52;97508.75;5013879;28;20136;-74
2023/04/23 10:52:01;;;;;;;2.00;1.80;;;;;;;17.50;52.11;97498.66;5030337;28;20535;-75
2023/04/23 10:54:33;;;;;;;4.22;2.20;;;;;;;17.24;52.73;97494.84;5030212;28;20033;-74
2023/04/23 10:57:03;;;;;;;2.67;2.28;;;;;;;17.17;54.97;97497.19;5019320;28;20116;-74
2023/04/23 10:59:30;;;;;;;2.20;2.00;;;;;;;16.82;52.73;97492.44;5030340;28;20399;-74
2023/04/23 11:02:08;;;;;;;2.10;1.90;;;;;;;17.56;51.50;97486.56;5029913;28;20030;-74
2023/04/23 11:04:35;;;;;;;2.53;2.10;;;;;;;17.31;52.56;97481.63;5028864;28;20033;-75
2023/04/23 11:07:08;;;;;;;2.92;1.70;;;;;;;16.86;52.86;97477.94;5013703;28;20500;-75
2023/04/23 11:09:33;;;;;;;3.40;1.98;;;;;;;17.16;54.65;97480.03;5046540;28;20151;-75
2023/04/23 11:12:00;;;;;;;1.92;1.73;;;;;;;17.58;50.85;97467.19;5031133;28;20092;-75
2023/04/23 11:14:53;;;;;;;2.33;1.83;;;;;;;18.16;49.25;97465.22;5030193;28;20075;-75
2023/04/23 11:17:24;;;;;;;2.30;2.10;;;;;;;18.66;51.69;97465.06;5023841;28;20049;-76
2023/04/23 11:20:14;;;;;;;3.15;1.67;;;;;;;17.72;48.61;97454.31;5030131;28;20041;-76
2023/04/23 11:22:49;;;;;;;3.28;1.65;;;;;;;19.35;47.83;97446.97;5032067;28;20049;-76
2023/04/23 11:25:19;;;;;;;2.33;1.58;;;;;;;19.63;47.52;97451.03;5014303;28;20692;-75